Time;durP1;ratioP1;P1;durP2;ratioP2;P2;SDS_P1;SDS_P2;PMS_P1;PMS_P2;Temp;Humidity;BMP_temperature;BMP_pressure;BME280_temperature;BME280_humidity;BME280_pressure;Samples;Min_cycle;Max_cycle;Signal;HPM_P1;HPM_P2
2021/06/27 00:01:26;;;;;;;6.18;5.68;;;;;;;30.06;60.21;100939.06;5050616;28;69172;-30
2021/06/27 00:04:17;;;;;;;10.13;5.70;;;;;;;30.63;60.65;101021.31;5053817;28;65213;-30
2021/06/27 00:06:49;;;;;;;14.23;5.32;;;;;;;30.68;60.37;101018.78;5069846;27;69262;-29
2021/06/27 00:09:20;;;;;;;19.33;5.43;;;;;;;30.71;62.28;101023.78;5056137;28;66474;-29
2021/06/27 00:11:52;;;;;;;11.23;4.63;;;;;;;30.67;63.06;101011.72;5057863;28;68990;-29
2021/06/27 00:14:23;;;;;;;10.73;4.35;;;;;;;30.60;63.37;101005.50;5055443;28;65238;-30
2021/06/27 00:16:54;;;;;;;16.90;5.25;;;;;;;30.71;64.29;101017.53;5055519;28;70567;-31
2021/06/27 00:19:25;;;;;;;14.07;5.45;;;;;;;30.71;64.43;101020.25;5051920;28;66161;-29
2021/06/27 00:21:56;;;;;;;13.82;4.90;;;;;;;30.65;64.57;101013.81;5054671;28;70343;-29
2021/06/27 00:24:27;;;;;;;10.65;4.38;;;;;;;30.76;63.86;101020.44;5055529;28;66109;-30
2021/06/27 00:26:58;;;;;;;5.82;4.18;;;;;;;30.79;63.96;101030.00;5051820;28;70356;-30
2021/06/27 00:29:29;;;;;;;14.18;4.30;;;;;;;30.53;63.82;100983.03;5051723;28;66629;-29
2021/06/27 00:32:00;;;;;;;17.50;3.70;;;;;;;30.84;64.09;101032.91;5055923;28;68903;-30
2021/06/27 00:34:32;;;;;;;11.07;3.50;;;;;;;30.85;63.71;101034.59;5054495;28;66138;-29
2021/06/27 00:37:03;;;;;;;8.57;4.20;;;;;;;30.88;63.35;101034.16;5050132;28;69052;-30
2021/06/27 00:39:33;;;;;;;16.98;4.22;;;;;;;30.55;64.12;100964.72;5057018;28;65295;-29
2021/06/27 00:42:05;;;;;;;13.23;4.82;;;;;;;30.63;64.44;100978.00;5053314;28;69165;-30
2021/06/27 00:44:36;;;;;;;13.50;4.90;;;;;;;31.01;63.42;101035.94;5056105;28;64964;-30
2021/06/27 00:47:07;;;;;;;10.63;4.10;;;;;;;31.03;63.95;101037.38;5056776;28;70945;-30
2021/06/27 00:49:37;;;;;;;17.95;4.53;;;;;;;31.06;63.77;101039.66;5052320;28;66182;-30
2021/06/27 00:52:08;;;;;;;21.42;4.72;;;;;;;31.09;64.25;101036.53;5054085;28;70256;-30
2021/06/27 00:54:39;;;;;;;13.02;5.07;;;;;;;31.16;63.88;101041.91;5056349;28;66527;-30
2021/06/27 00:57:10;;;;;;;14.18;3.95;;;;;;;31.16;63.82;101042.72;5048052;28;69206;-29
2021/06/27 00:59:42;;;;;;;10.68;4.80;;;;;;;31.23;63.57;101044.53;5054137;28;66531;-29
2021/06/27 01:02:13;;;;;;;19.83;3.95;;;;;;;31.24;63.25;101044.34;5052551;28;70003;-29
2021/06/27 01:04:44;;;;;;;9.05;5.22;;;;;;;31.23;64.19;101052.69;5054566;28;65186;-30
2021/06/27 01:07:15;;;;;;;9.07;4.72;;;;;;;31.21;63.93;101043.97;5049978;28;69200;-30
2021/06/27 01:09:46;;;;;;;10.27;5.53;;;;;;;31.26;63.80;101052.25;5056973;28;65454;-29
2021/06/27 01:12:20;;;;;;;12.07;4.32;;;;;;;31.27;64.12;101056.63;5053357;28;70205;-30
2021/06/27 01:14:52;;;;;;;;;;;;;;;31.10;64.58;101065.28;5053622;28;66240;-28
2021/06/27 01:17:23;;;;;;;12.98;5.05;;;;;;;31.25;63.42;101061.44;5048053;28;70486;-31
2021/06/27 01:19:54;;;;;;;9.90;4.97;;;;;;;31.28;64.01;101066.41;5051559;28;66018;-30
2021/06/27 01:22:28;;;;;;;20.55;5.55;;;;;;;31.30;62.82;101075.16;5052894;28;69720;-30
2021/06/27 01:24:59;;;;;;;11.43;5.28;;;;;;;31.29;63.91;101074.34;5051711;28;65102;-30
2021/06/27 01:27:30;;;;;;;12.35;5.10;;;;;;;31.30;63.88;101064.31;5054816;28;69707;-30
2021/06/27 01:30:01;;;;;;;13.38;5.20;;;;;;;31.30;64.05;101062.44;5053058;28;65891;-28
2021/06/27 01:32:32;;;;;;;12.57;3.92;;;;;;;31.35;63.99;101061.78;5052280;28;69474;-28
2021/06/27 01:35:06;;;;;;;12.10;4.70;;;;;;;31.38;64.41;101066.78;5051435;28;66274;-28
2021/06/27 01:37:41;;;;;;;11.45;4.53;;;;;;;31.40;64.75;101070.13;5052872;28;69539;-27
2021/06/27 01:40:15;;;;;;;7.60;4.18;;;;;;;30.97;64.69;100994.91;5055231;28;66206;-28
2021/06/27 01:42:48;;;;;;;10.85;4.70;;;;;;;31.42;64.10;101073.44;5056107;28;70516;-29
2021/06/27 01:45:22;;;;;;;12.80;5.00;;;;;;;31.27;63.96;101043.06;5051457;28;65976;-30
2021/06/27 01:47:59;;;;;;;15.88;4.47;;;;;;;31.49;64.08;101074.22;5051707;28;70092;-30
2021/06/27 01:50:33;;;;;;;10.07;4.10;;;;;;;31.33;63.98;101042.19;5037169;28;66447;-30
2021/06/27 01:53:06;;;;;;;10.27;4.05;;;;;;;31.53;63.88;101072.72;5042181;28;70155;-28
2021/06/27 01:55:42;;;;;;;9.50;4.82;;;;;;;31.54;64.61;101074.41;5048854;28;65537;-29
2021/06/27 01:58:14;;;;;;;9.75;4.72;;;;;;;31.56;64.12;101069.56;5043987;28;70170;-29
2021/06/27 02:00:48;;;;;;;13.88;5.10;;;;;;;31.65;63.84;101066.56;5046678;28;66452;-28
2021/06/27 02:03:19;;;;;;;17.42;5.05;;;;;;;31.65;63.54;101066.56;5046258;28;69442;-28
2021/06/27 02:05:50;;;;;;;12.70;4.38;;;;;;;31.71;63.65;101065.72;5045758;28;66893;-29
2021/06/27 02:08:21;;;;;;;8.77;4.55;;;;;;;31.71;62.90;101065.72;5054039;28;69880;-30
2021/06/27 02:10:56;;;;;;;8.90;4.78;;;;;;;31.72;63.22;101056.50;5049410;28;66365;-28
2021/06/27 02:13:28;;;;;;;10.32;4.65;;;;;;;31.75;62.90;101061.50;5051244;28;70637;-29
2021/06/27 02:15:59;;;;;;;12.55;4.55;;;;;;;31.76;63.26;101066.72;5049141;28;66290;-29
2021/06/27 02:18:33;;;;;;;5.85;4.05;;;;;;;31.38;63.11;100993.59;5046194;28;69088;-29
2021/06/27 02:21:13;;;;;;;7.45;4.68;;;;;;;31.37;63.31;100983.78;5051112;28;66646;-28
2021/06/27 02:23:45;;;;;;;6.57;4.38;;;;;;;31.55;62.79;101013.69;5053505;28;69976;-27
2021/06/27 02:26:16;;;;;;;12.63;4.30;;;;;;;31.89;63.34;101056.78;5054554;28;66535;-27
2021/06/27 02:28:48;;;;;;;7.30;4.13;;;;;;;31.84;62.41;101049.31;5033783;28;69727;-31
2021/06/27 02:31:20;;;;;;;9.18;3.83;;;;;;;31.94;62.37;101052.38;5052787;28;66149;-30
2021/06/27 02:33:52;;;;;;;10.93;4.63;;;;;;;31.97;62.49;101053.81;5051317;28;69203;-27
2021/06/27 02:36:23;;;;;;;10.80;4.45;;;;;;;31.97;61.72;101060.06;5050693;28;66402;-28
2021/06/27 02:38:54;;;;;;;12.88;5.10;;;;;;;31.98;60.77;101056.31;5052001;28;70608;-29
2021/06/27 02:41:25;;;;;;;11.90;4.53;;;;;;;31.99;61.04;101052.53;5052235;28;65494;-28
2021/06/27 02:43:56;;;;;;;26.93;5.67;;;;;;;31.90;61.40;101036.72;5053634;28;70005;-30
2021/06/27 02:46:27;;;;;;;14.15;5.22;;;;;;;32.00;61.07;101054.19;5052341;28;66164;-28
2021/06/27 02:48:59;;;;;;;14.60;5.20;;;;;;;32.03;61.20;101045.59;5053312;28;69882;-28
2021/06/27 02:51:30;;;;;;;13.60;5.20;;;;;;;32.03;60.72;101048.31;5053063;28;65660;-28
2021/06/27 02:54:02;;;;;;;12.75;5.18;;;;;;;32.07;60.96;101043.28;5050683;28;69227;-30
2021/06/27 02:56:34;;;;;;;11.23;4.72;;;;;;;32.05;61.50;101035.34;5067863;28;66462;-30
2021/06/27 02:59:05;;;;;;;14.32;5.32;;;;;;;32.04;61.39;101030.16;5054287;28;69203;-29
2021/06/27 03:01:36;;;;;;;21.48;5.43;;;;;;;32.08;61.90;101019.69;5055785;28;65218;-29
2021/06/27 03:04:07;;;;;;;13.27;5.13;;;;;;;32.17;61.88;101027.28;5050981;28;71071;-28
2021/06/27 03:06:39;;;;;;;16.92;5.15;;;;;;;32.17;61.95;101026.47;5049981;28;65494;-28
2021/06/27 03:09:10;;;;;;;10.90;5.10;;;;;;;32.20;62.43;101020.59;5062108;28;69830;-28
2021/06/27 03:11:45;;;;;;;17.13;5.47;;;;;;;32.17;62.75;101021.03;5051347;28;66080;-29
2021/06/27 03:14:19;;;;;;;10.57;5.10;;;;;;;32.16;62.50;101008.53;5047697;28;70096;-29
2021/06/27 03:16:50;;;;;;;8.10;5.32;;;;;;;32.21;61.35;101016.84;5052857;28;66530;-29
2021/06/27 03:19:26;;;;;;;11.50;4.50;;;;;;;32.15;61.08;100996.00;5053451;28;70213;-29
2021/06/27 03:21:58;;;;;;;8.27;4.63;;;;;;;32.27;60.80;100997.75;5054559;28;66256;-28
2021/06/27 03:24:29;;;;;;;10.45;4.95;;;;;;;32.26;60.27;100997.97;5050388;28;69588;-29
2021/06/27 03:27:03;;;;;;;9.95;5.68;;;;;;;32.36;60.17;101002.88;5050704;28;65833;-28
2021/06/27 03:29:34;;;;;;;17.90;5.83;;;;;;;32.37;59.54;100989.03;5068287;27;70367;-29
2021/06/27 03:32:07;;;;;;;17.08;6.13;;;;;;;32.45;59.17;100990.63;5053150;28;65745;-30
2021/06/27 03:34:42;;;;;;;11.80;5.72;;;;;;;32.47;59.31;100983.94;5058183;28;70181;-30
2021/06/27 03:37:14;;;;;;;14.50;5.73;;;;;;;32.54;58.32;100981.16;5050337;28;66300;-31
2021/06/27 03:39:45;;;;;;;21.83;5.85;;;;;;;32.58;58.79;100984.25;5054070;28;69654;-29
2021/06/27 03:42:16;;;;;;;9.67;5.30;;;;;;;32.58;59.40;100986.97;5055158;28;65237;-30
2021/06/27 03:44:48;;;;;;;;;;;;;;;32.38;58.62;100979.88;5057166;28;70190;-28
2021/06/27 03:47:24;;;;;;;17.52;5.50;;;;;;;32.58;58.26;100970.66;5054875;28;66434;-30
2021/06/27 03:49:57;;;;;;;12.98;4.72;;;;;;;32.63;58.88;100970.81;5056444;28;70065;-28
2021/06/27 03:52:29;;;;;;;;;;;;;;;32.42;59.60;100963.94;5054703;28;66502;-28
2021/06/27 03:55:05;;;;;;;22.40;4.82;;;;;;;32.16;59.55;100899.97;5057011;28;69333;-29
2021/06/27 03:57:36;;;;;;;7.53;5.05;;;;;;;32.57;59.91;100961.69;5055537;28;66013;-29
2021/06/27 04:00:09;;;;;;;8.05;5.13;;;;;;;32.60;60.24;100963.13;5053417;28;70249;-29
2021/06/27 04:02:42;;;;;;;16.02;4.80;;;;;;;32.61;60.35;100959.34;5054459;28;66681;-30
2021/06/27 04:05:13;;;;;;;10.93;4.30;;;;;;;32.55;58.89;100952.13;5048748;28;69416;-30
2021/06/27 04:07:45;;;;;;;14.05;4.13;;;;;;;32.33;57.12;100944.44;5053324;28;66390;-29
2021/06/27 04:10:28;;;;;;;6.90;4.07;;;;;;;32.22;54.50;100950.63;5052832;28;70292;-28
2021/06/27 04:13:03;;;;;;;15.43;3.55;;;;;;;32.08;53.27;100944.53;5068607;27;66079;-29
2021/06/27 04:15:34;;;;;;;;;;;;;;;31.66;52.41;100948.94;5068968;27;70259;-31
2021/06/27 04:18:09;;;;;;;7.47;3.67;;;;;;;31.68;52.14;100935.97;5070809;27;65267;-28
2021/06/27 04:20:42;;;;;;;12.82;3.72;;;;;;;31.60;50.65;100943.34;5054212;28;69315;-30
2021/06/27 04:23:16;;;;;;;12.15;3.47;;;;;;;31.52;50.51;100943.63;5052647;28;66368;-29
2021/06/27 04:25:48;;;;;;;5.23;3.53;;;;;;;31.42;49.94;100942.47;5056013;28;69810;-29
2021/06/27 04:28:19;;;;;;;12.68;3.58;;;;;;;31.32;48.42;100943.78;5070254;27;65567;-29
2021/06/27 04:30:53;;;;;;;6.07;2.92;;;;;;;31.05;48.21;100907.13;5069415;27;69883;-29
2021/06/27 04:33:27;;;;;;;9.63;3.70;;;;;;;31.15;48.13;100943.53;5068777;27;64806;-29
2021/06/27 04:35:58;;;;;;;4.07;3.00;;;;;;;31.08;47.61;100931.88;5052947;28;69426;-29
2021/06/27 04:38:29;;;;;;;6.32;3.80;;;;;;;31.02;46.25;100932.78;5054225;28;66560;-28
2021/06/27 04:41:01;;;;;;;5.82;2.67;;;;;;;30.95;46.57;100940.09;5056897;28;69399;-29
2021/06/27 04:43:32;;;;;;;3.45;3.05;;;;;;;30.87;47.30;100937.66;5054806;28;65951;-29
2021/06/27 04:46:04;;;;;;;7.68;3.28;;;;;;;30.86;46.12;100927.91;5047706;28;70287;-29
2021/06/27 04:48:37;;;;;;;6.40;3.00;;;;;;;30.34;45.80;100848.63;5056174;28;65263;-29
2021/06/27 04:51:09;;;;;;;3.88;2.83;;;;;;;30.76;44.35;100927.50;5056868;28;69488;-28
2021/06/27 04:53:40;;;;;;;5.53;2.42;;;;;;;30.67;45.63;100916.97;5054147;28;65425;-28
2021/06/27 04:56:13;;;;;;;4.13;2.70;;;;;;;30.55;43.79;100899.75;5055964;28;68683;-29
2021/06/27 04:58:48;;;;;;;3.28;2.55;;;;;;;30.62;44.14;100924.91;5054775;28;66475;-29
2021/06/27 05:01:19;;;;;;;2.60;2.40;;;;;;;30.57;44.31;100916.59;5055332;28;70082;-32
2021/06/27 05:03:52;;;;;;;3.80;2.53;;;;;;;30.57;43.75;100908.47;5053426;28;66061;-28
2021/06/27 05:06:25;;;;;;;2.60;2.40;;;;;;;30.44;44.49;100870.66;5032966;28;68389;-28
2021/06/27 05:08:57;;;;;;;4.93;2.45;;;;;;;30.55;44.56;100902.44;5053779;28;66207;-29
2021/06/27 05:11:29;;;;;;;2.15;2.00;;;;;;;30.57;44.08;100899.53;5054602;28;70087;-27
2021/06/27 05:14:01;;;;;;;4.13;2.88;;;;;;;30.48;43.78;100893.56;5066499;27;66526;-29
2021/06/27 05:16:33;;;;;;;4.05;2.60;;;;;;;30.46;43.39;100887.50;5048247;28;69460;-27
2021/06/27 05:19:07;;;;;;;2.42;2.20;;;;;;;30.47;42.92;100891.88;5053589;28;65480;-27
2021/06/27 05:21:39;;;;;;;2.77;2.57;;;;;;;30.47;43.40;100891.88;5050259;28;70345;-28
2021/06/27 05:24:10;;;;;;;12.43;2.42;;;;;;;30.40;43.33;100874.84;5049193;28;64844;-29
2021/06/27 05:26:42;;;;;;;7.50;2.10;;;;;;;30.44;43.61;100881.47;5050065;28;69834;-30
2021/06/27 05:29:13;;;;;;;6.97;2.22;;;;;;;30.47;43.24;100891.88;5050386;28;66514;-29
2021/06/27 05:31:45;;;;;;;;;;;;;;;30.27;42.01;100882.00;5052490;28;69766;-30
2021/06/27 05:34:40;;;;;;;6.53;2.33;;;;;;;30.42;42.33;100853.78;5053808;28;66299;-29
2021/06/27 05:37:14;;;;;;;4.38;2.58;;;;;;;30.44;41.94;100851.72;5050523;28;70531;-28
2021/06/27 05:39:49;;;;;;;9.15;2.45;;;;;;;30.56;41.94;100858.06;5043885;28;66890;-29
2021/06/27 05:42:21;;;;;;;11.65;2.40;;;;;;;30.55;41.48;100866.44;5045331;28;70577;-30
2021/06/27 05:44:53;;;;;;;2.92;1.83;;;;;;;30.48;42.11;100861.06;5045795;28;65462;-28
2021/06/27 05:47:26;;;;;;;10.70;2.58;;;;;;;30.76;41.42;100851.69;5046733;28;69978;-32
2021/06/27 05:49:59;;;;;;;;;;;;;;;30.75;40.58;100858.16;5044967;28;66254;-30
2021/06/27 05:52:31;;;;;;;5.63;1.75;;;;;;;30.98;40.87;100855.72;5043746;28;69856;-31
2021/06/27 05:55:06;;;;;;;5.57;2.33;;;;;;;30.98;41.02;100834.06;5045872;28;66476;-31
2021/06/27 05:57:37;;;;;;;6.03;2.00;;;;;;;31.08;40.55;100839.78;5044507;28;69953;-29
2021/06/27 06:00:09;;;;;;;6.97;2.45;;;;;;;31.08;40.71;100831.66;5044270;28;66008;-31
2021/06/27 06:02:44;;;;;;;2.92;2.45;;;;;;;31.07;40.33;100824.59;5050496;28;70547;-31
2021/06/27 06:05:21;;;;;;;2.97;1.95;;;;;;;31.14;39.94;100832.63;5050857;28;65431;-30
2021/06/27 06:07:54;;;;;;;6.97;2.15;;;;;;;30.97;40.02;100783.63;5053504;28;69099;-31
2021/06/27 06:10:29;;;;;;;3.25;1.90;;;;;;;31.27;39.79;100818.13;5047981;28;65538;-31
2021/06/27 06:13:08;;;;;;;10.95;2.10;;;;;;;30.77;39.30;100739.63;5055265;28;70709;-33
2021/06/27 06:15:40;;;;;;;3.95;2.05;;;;;;;31.13;39.36;100817.44;5052455;28;66212;-32
2021/06/27 06:18:12;;;;;;;6.82;2.20;;;;;;;31.02;39.16;100823.59;5048809;28;68908;-32
2021/06/27 06:20:44;;;;;;;3.88;2.05;;;;;;;30.96;40.32;100819.91;5055756;28;65247;-32
2021/06/27 06:23:15;;;;;;;;;;;;;;;30.76;40.42;100822.75;5054370;28;69534;-32
2021/06/27 06:25:49;;;;;;;15.23;1.85;;;;;;;30.58;41.13;100763.94;5067479;27;66645;-32
2021/06/27 06:28:21;;;;;;;8.07;2.10;;;;;;;30.95;41.32;100815.50;5055752;28;70172;-33
2021/06/27 06:30:52;;;;;;;9.38;2.10;;;;;;;30.94;41.51;100805.72;5050155;28;65995;-32
2021/06/27 06:33:23;;;;;;;10.77;2.35;;;;;;;30.94;40.80;100800.31;5055050;28;69560;-31
2021/06/27 06:35:54;;;;;;;6.80;2.55;;;;;;;30.97;40.55;100810.72;5050863;28;65050;-31
2021/06/27 06:38:25;;;;;;;8.40;2.00;;;;;;;30.94;40.41;100789.47;5051247;28;69991;-32
2021/06/27 06:40:59;;;;;;;13.57;1.92;;;;;;;30.59;39.90;100725.00;5054914;28;66522;-31
2021/06/27 06:43:31;;;;;;;5.38;2.05;;;;;;;30.91;40.29;100779.09;5053835;28;70089;-31
2021/06/27 06:46:03;;;;;;;;;;;;;;;30.73;39.95;100777.97;5051411;28;66078;-32
2021/06/27 06:48:35;;;;;;;4.65;2.25;;;;;;;30.94;40.56;100770.53;5055629;28;69255;-32
2021/06/27 06:51:11;;;;;;;3.70;1.90;;;;;;;30.70;40.31;100732.41;5054335;28;65250;-31
2021/06/27 06:53:42;;;;;;;;;;;;;;;30.75;39.83;100768.78;5056385;28;69913;-32
2021/06/27 06:56:14;;;;;;;8.30;1.85;;;;;;;30.97;40.08;100767.38;5051574;28;66396;-32
2021/06/27 06:58:46;;;;;;;3.38;1.40;;;;;;;30.78;40.19;100725.03;5052889;28;69327;-36
2021/06/27 07:01:19;;;;;;;5.82;2.35;;;;;;;30.98;39.97;100763.63;5053491;28;66107;-33
2021/06/27 07:04:05;;;;;;;5.63;1.80;;;;;;;30.88;39.54;100738.91;5051028;28;70637;-32
2021/06/27 07:06:38;;;;;;;6.43;1.98;;;;;;;30.93;39.41;100742.63;5053695;28;65551;-31
2021/06/27 07:09:23;;;;;;;3.15;1.60;;;;;;;31.00;39.07;100756.06;4966605;28;70652;-32
2021/06/27 07:11:55;;;;;;;2.45;1.77;;;;;;;30.99;39.09;100746.31;4966896;28;67020;-32
2021/06/27 07:14:29;;;;;;;2.00;1.60;;;;;;;31.04;38.33;100745.66;4968466;28;69501;-31
2021/06/27 07:17:19;;;;;;;4.53;1.67;;;;;;;31.04;38.63;100749.19;4974294;28;65661;-31
2021/06/27 07:19:53;;;;;;;4.03;1.77;;;;;;;31.04;37.88;100743.75;4972460;28;70354;-31
2021/06/27 07:22:25;;;;;;;2.00;1.50;;;;;;;31.05;38.03;100745.41;4970055;28;66496;-30
2021/06/27 07:25:00;;;;;;;1.63;1.52;;;;;;;31.04;38.41;100735.63;4973172;28;70066;-32
2021/06/27 07:27:55;;;;;;;2.30;1.42;;;;;;;31.02;38.54;100743.16;4962634;28;66199;-31
2021/06/27 07:30:26;;;;;;;1.60;1.50;;;;;;;30.97;37.53;100732.16;4972327;28;69147;-31
2021/06/27 07:32:57;;;;;;;1.52;1.42;;;;;;;31.01;38.31;100735.22;4971756;28;65718;-31
2021/06/27 07:35:50;;;;;;;2.15;1.35;;;;;;;31.07;38.33;100731.66;4970055;28;70690;-32
2021/06/27 07:38:23;;;;;;;1.80;1.50;;;;;;;31.06;38.83;100733.50;4971391;28;66445;-32
2021/06/27 07:41:19;;;;;;;3.72;1.77;;;;;;;31.07;39.26;100726.22;4937281;28;70137;-31
2021/06/27 07:43:51;;;;;;;2.75;1.70;;;;;;;31.07;39.88;100718.09;4973511;28;66712;-31
2021/06/27 07:46:35;;;;;;;2.92;1.80;;;;;;;31.21;41.06;100719.59;5006602;28;69331;-31
2021/06/27 07:49:07;;;;;;;10.02;2.00;;;;;;;31.30;41.53;100709.28;5072112;27;65697;-31
2021/06/27 07:51:51;;;;;;;2.25;1.60;;;;;;;31.55;41.37;100725.47;5069683;27;69233;-32
2021/06/27 07:54:23;;;;;;;2.95;1.95;;;;;;;31.68;41.55;100730.72;5070165;28;65368;-31
2021/06/27 07:56:55;;;;;;;8.55;1.70;;;;;;;31.81;41.65;100726.97;5069272;27;69916;-32
2021/06/27 07:59:27;;;;;;;4.30;1.25;;;;;;;31.95;41.79;100720.31;5056955;28;66032;-31
2021/06/27 08:01:59;;;;;;;4.43;1.48;;;;;;;32.11;41.69;100723.44;5056170;28;69599;-32
2021/06/27 08:04:32;;;;;;;1.40;1.30;;;;;;;32.15;41.76;100702.91;5056839;28;65975;-32
2021/06/27 08:07:03;;;;;;;;;;;;;;;32.15;45.51;100711.06;5052578;28;69804;-32
2021/06/27 08:09:49;;;;;;;7.22;2.35;;;;;;;32.45;47.48;100703.66;5046240;28;66840;-32
2021/06/27 08:12:21;;;;;;;3.22;2.30;;;;;;;32.63;48.83;100705.47;5056538;28;69322;-34
2021/06/27 08:14:53;;;;;;;2.67;2.47;;;;;;;32.72;49.39;100701.34;5056303;28;66552;-31
2021/06/27 08:17:26;;;;;;;6.38;2.33;;;;;;;32.88;49.83;100705.22;5055023;28;69918;-33
2021/06/27 08:19:57;;;;;;;;;;;;;;;32.80;52.25;100705.59;5057269;28;66297;-31
2021/06/27 08:22:31;;;;;;;4.22;2.65;;;;;;;33.06;50.42;100703.44;5053144;28;69715;-32
2021/06/27 08:25:04;;;;;;;4.78;2.53;;;;;;;33.17;50.25;100694.44;5054295;28;65587;-31
2021/06/27 08:27:36;;;;;;;3.03;2.30;;;;;;;33.16;50.67;100681.94;5050239;28;69741;-34
2021/06/27 08:30:09;;;;;;;6.90;2.45;;;;;;;32.84;51.13;100619.81;5052604;28;66178;-34
2021/06/27 08:32:43;;;;;;;12.93;2.70;;;;;;;33.40;51.69;100692.72;5037142;28;69080;-32
2021/06/27 08:35:20;;;;;;;4.95;3.00;;;;;;;33.46;51.87;100697.19;5068408;28;66066;-32
2021/06/27 08:37:53;;;;;;;4.03;3.05;;;;;;;33.53;51.47;100689.75;5053138;28;69111;-33
2021/06/27 08:40:24;;;;;;;;;;;;;;;33.34;52.70;100689.06;5051406;28;65832;-32
2021/06/27 08:42:56;;;;;;;5.97;3.00;;;;;;;33.58;51.52;100684.41;5064415;28;69082;-35
2021/06/27 08:45:53;;;;;;;4.15;2.58;;;;;;;33.65;52.41;100685.06;5047779;28;66393;-32
2021/06/27 08:48:26;;;;;;;21.13;3.35;;;;;;;33.68;52.01;100690.00;5053348;28;69628;-33
2021/06/27 08:50:58;;;;;;;5.25;3.45;;;;;;;33.40;52.55;100632.91;5054741;28;66398;-32
2021/06/27 08:53:32;;;;;;;15.13;4.47;;;;;;;33.77;51.10;100688.56;5054040;28;70591;-35
2021/06/27 08:56:05;;;;;;;15.23;4.15;;;;;;;33.78;50.57;100679.31;5056141;28;65862;-33
2021/06/27 08:58:41;;;;;;;12.75;3.80;;;;;;;33.85;50.64;100683.78;5053145;28;69756;-33
2021/06/27 09:01:19;;;;;;;7.85;3.00;;;;;;;33.86;51.02;100685.44;5010630;28;66182;-35
2021/06/27 09:03:51;;;;;;;11.40;3.20;;;;;;;33.68;50.56;100651.94;5067847;28;69253;-33
2021/06/27 09:06:24;;;;;;;10.50;3.95;;;;;;;33.93;51.21;100694.25;5039712;28;65253;-33
2021/06/27 09:09:20;;;;;;;40.45;3.75;;;;;;;33.88;51.99;100686.84;5035742;28;69960;-32
2021/06/27 09:12:02;;;;;;;6.40;3.03;;;;;;;33.91;52.33;100677.38;5059299;28;66136;-31
2021/06/27 09:14:48;;;;;;;13.85;3.08;;;;;;;33.73;51.58;100641.13;5040872;28;70104;-33
2021/06/27 09:17:25;;;;;;;8.32;3.45;;;;;;;33.70;51.62;100638.09;5058986;28;66069;-34
2021/06/27 09:20:45;;;;;;;10.25;2.78;;;;;;;33.92;52.21;100679.84;5056472;28;69260;-34
2021/06/27 09:23:20;;;;;;;10.05;3.13;;;;;;;33.72;52.74;100635.97;5051158;28;65939;-35
2021/06/27 09:25:51;;;;;;;5.90;3.35;;;;;;;34.01;51.86;100675.63;5066215;27;70082;-33
2021/06/27 09:28:22;;;;;;;10.00;3.92;;;;;;;34.04;52.42;100674.31;5034397;28;65450;-34
2021/06/27 09:30:55;;;;;;;21.52;3.70;;;;;;;33.77;52.30;100617.84;5058329;28;70570;-33
2021/06/27 09:33:33;;;;;;;15.65;3.25;;;;;;;34.10;52.43;100659.78;5056610;28;65962;-34
2021/06/27 09:36:11;;;;;;;8.50;3.45;;;;;;;34.13;52.27;100669.31;5053668;28;70299;-34
2021/06/27 09:38:51;;;;;;;13.10;3.40;;;;;;;34.14;52.18;100666.34;5062677;28;66147;-33
2021/06/27 09:41:30;;;;;;;5.50;3.58;;;;;;;33.47;51.85;100552.00;5056306;28;70642;-34
2021/06/27 09:44:08;;;;;;;5.00;3.78;;;;;;;33.75;50.79;100608.25;5057110;28;65427;-33
2021/06/27 09:46:46;;;;;;;5.13;3.50;;;;;;;33.73;50.67;100611.22;5071235;28;70108;-34
2021/06/27 09:49:31;;;;;;;9.00;4.30;;;;;;;33.88;50.30;100637.03;5073232;27;66118;-34
2021/06/27 09:52:33;;;;;;;7.95;4.57;;;;;;;33.74;50.83;100601.16;5047659;28;70391;-34
2021/06/27 09:55:08;;;;;;;10.35;5.20;;;;;;;33.80;51.61;100606.44;5056977;28;66736;-33
2021/06/27 09:58:17;;;;;;;6.85;4.53;;;;;;;34.06;51.76;100647.72;5052924;28;69201;-34
2021/06/27 10:00:48;;;;;;;11.90;5.55;;;;;;;34.15;51.07;100657.09;5054762;28;66649;-32
2021/06/27 10:03:20;;;;;;;20.73;6.10;;;;;;;34.15;52.24;100654.38;5058477;28;69822;-34
2021/06/27 10:05:51;;;;;;;16.80;6.50;;;;;;;34.14;53.17;100650.03;5057970;28;66078;-34
2021/06/27 10:08:31;;;;;;;;;;;;;;;33.94;54.15;100639.59;5055944;28;70452;-33
2021/06/27 10:11:29;;;;;;;25.20;9.93;;;;;;;34.11;53.64;100650.53;5010114;28;67054;-34
2021/06/27 10:14:08;;;;;;;31.53;10.73;;;;;;;33.78;55.05;100602.31;5008515;28;70144;-36
2021/06/27 10:16:40;;;;;;;27.02;11.20;;;;;;;34.09;54.73;100668.97;5012628;28;66782;-34
2021/06/27 10:19:13;;;;;;;36.65;10.63;;;;;;;33.71;55.10;100597.06;5013012;28;71081;-35
2021/06/27 10:21:47;;;;;;;26.85;11.52;;;;;;;34.00;55.93;100648.69;5012900;28;65698;-33
2021/06/27 10:24:20;;;;;;;27.70;10.75;;;;;;;34.05;55.65;100661.59;5008503;28;70040;-38
2021/06/27 10:26:51;;;;;;;28.08;9.88;;;;;;;34.10;54.82;100665.22;5009619;28;66144;-34
2021/06/27 10:29:24;;;;;;;33.75;10.63;;;;;;;33.84;54.93;100625.81;5007517;28;70428;-33
2021/06/27 10:31:56;;;;;;;18.35;8.73;;;;;;;34.14;54.52;100674.50;5003494;28;66594;-34
2021/06/27 10:34:28;;;;;;;22.10;9.25;;;;;;;34.16;54.90;100679.72;5012716;28;70452;-33
2021/06/27 10:37:25;;;;;;;;;;;;;;;33.93;56.10;100678.75;5014682;28;66027;-33
2021/06/27 10:40:11;;;;;;;19.63;8.35;;;;;;;34.08;55.70;100680.97;5010016;28;69773;-33
2021/06/27 10:42:51;;;;;;;19.90;9.00;;;;;;;34.11;55.19;100683.19;5011614;28;66280;-33
2021/06/27 10:45:32;;;;;;;13.75;7.93;;;;;;;34.10;55.62;100687.00;4998487;28;69949;-34
2021/06/27 10:48:31;;;;;;;17.70;8.83;;;;;;;34.02;55.86;100690.91;5045188;28;65466;-34
2021/06/27 10:51:11;;;;;;;16.48;8.13;;;;;;;34.07;55.41;100687.44;5056835;28;69898;-33
2021/06/27 10:54:15;;;;;;;19.90;8.32;;;;;;;34.04;55.83;100690.63;5058697;28;65725;-34
2021/06/27 10:57:01;;;;;;;15.07;8.95;;;;;;;34.05;56.20;100703.22;5059141;28;70111;-34
2021/06/27 10:59:51;;;;;;;17.40;9.23;;;;;;;34.04;56.98;100715.13;5062426;27;65316;-34
2021/06/27 11:02:41;;;;;;;13.88;8.10;;;;;;;34.10;57.53;100716.94;5060234;28;69078;-34
2021/06/27 11:05:33;;;;;;;20.55;8.45;;;;;;;34.07;57.77;100725.56;5058099;28;65243;-34
2021/06/27 11:08:04;;;;;;;;;;;;;;;33.87;58.82;100736.06;5057482;28;70071;-33
2021/06/27 11:10:36;;;;;;;20.52;7.03;;;;;;;34.03;57.85;100725.19;5058672;28;65885;-33
2021/06/27 11:13:11;;;;;;;13.57;6.45;;;;;;;34.06;58.24;100723.91;5061125;28;69850;-31
2021/06/27 11:16:02;;;;;;;8.93;6.55;;;;;;;34.07;57.83;100735.63;5057994;28;66610;-34
2021/06/27 11:18:49;;;;;;;15.45;7.82;;;;;;;34.04;59.01;100747.78;5059926;28;70264;-33
2021/06/27 11:21:24;;;;;;;12.48;6.45;;;;;;;34.08;58.33;100749.00;5058259;28;66590;-33
2021/06/27 11:23:58;;;;;;;21.60;7.57;;;;;;;34.06;58.75;100740.25;5058979;28;69019;-33
2021/06/27 11:26:44;;;;;;;20.40;6.88;;;;;;;34.01;59.55;100746.38;5060506;28;65401;-34
2021/06/27 11:29:24;;;;;;;16.73;7.00;;;;;;;34.03;59.55;100746.16;5057897;28;69896;-33
2021/06/27 11:32:16;;;;;;;21.02;7.00;;;;;;;34.03;59.46;100743.44;5073709;27;66117;-33
2021/06/27 11:34:54;;;;;;;25.10;7.50;;;;;;;33.91;58.39;100759.84;5059212;28;69118;-34
2021/06/27 11:37:44;;;;;;;13.02;6.78;;;;;;;33.51;56.60;100700.00;5028195;28;65948;-33
2021/06/27 11:40:15;;;;;;;8.25;7.22;;;;;;;33.57;55.09;100742.56;5059724;28;69671;-32
2021/06/27 11:42:46;;;;;;;16.55;7.15;;;;;;;33.38;53.76;100740.00;5060230;28;66193;-33
2021/06/27 11:45:17;;;;;;;18.10;6.30;;;;;;;33.32;53.24;100757.28;5060030;28;69872;-34
2021/06/27 11:47:51;;;;;;;21.38;5.97;;;;;;;33.20;52.68;100764.63;5055955;28;66084;-33
2021/06/27 11:50:37;;;;;;;10.07;6.07;;;;;;;32.82;51.58;100736.06;5038031;28;70467;-32
2021/06/27 11:53:13;;;;;;;19.08;6.18;;;;;;;32.89;50.52;100774.78;5058059;28;66014;-32
2021/06/27 11:55:48;;;;;;;15.77;6.15;;;;;;;32.55;50.02;100740.31;5063854;28;70319;-32
2021/06/27 11:58:36;;;;;;;10.75;5.45;;;;;;;32.72;49.89;100798.28;5060370;28;65422;-34
2021/06/27 12:01:22;;;;;;;15.40;5.78;;;;;;;32.63;50.04;100807.84;5056283;28;69461;-33